Tributaries of Vltava river

river Berounka - water gauge Beroun

Date and time (UTC) H (cm) Q (m3/s)
21. 10. 2020 08:50 108 25.3
21. 10. 2020 08:00 107 25
21. 10. 2020 07:00 110 27
21. 10. 2020 06:00 110 27
21. 10. 2020 05:00 111 27
21. 10. 2020 04:00 110 27
21. 10. 2020 03:00 110 27
21. 10. 2020 02:00 111 27
21. 10. 2020 01:00 110 27
21. 10. 2020 00:00 111 27
20. 10. 2020 23:00 111 27
20. 10. 2020 22:00 110 27
20. 10. 2020 21:00 110 27
20. 10. 2020 20:00 111 27

H - water level, Q - discharge

river Sázava - water gauge Nespeky

Date and time (UTC) H (cm) Q (m3/s)
21. 10. 2020 08:40 117 30.3
21. 10. 2020 08:00 117 30
21. 10. 2020 07:00 118 31
21. 10. 2020 06:00 118 31
21. 10. 2020 05:00 119 31
21. 10. 2020 04:00 118 31
21. 10. 2020 03:00 118 31
21. 10. 2020 02:00 118 31
21. 10. 2020 01:00 118 31
21. 10. 2020 00:00 119 31
20. 10. 2020 23:00 120 32
20. 10. 2020 22:00 121 32
20. 10. 2020 21:00 121 32
20. 10. 2020 20:00 120 32

H - water level, Q - discharge

river Otava - water gauge Písek

Date and time (UTC) H (cm) Q (m3/s)
21. 10. 2020 08:40 84 18.5
21. 10. 2020 08:00 84 19
21. 10. 2020 07:00 83 18
21. 10. 2020 06:00 82 18
21. 10. 2020 05:00 82 18
21. 10. 2020 04:00 82 18
21. 10. 2020 03:00 82 18
21. 10. 2020 02:00 83 18
21. 10. 2020 01:00 84 19
21. 10. 2020 00:00 84 19
20. 10. 2020 23:00 84 19
20. 10. 2020 22:00 85 19
20. 10. 2020 21:00 85 19
20. 10. 2020 20:00 86 19

H - water level, Q - discharge

river Lužnice - water gauge Bechyně

Date and time (UTC) H (cm) Q (m3/s)
21. 10. 2020 08:40 186 44.9
21. 10. 2020 08:00 186 45
21. 10. 2020 07:00 186 45
21. 10. 2020 06:00 187 46
21. 10. 2020 05:00 187 46
21. 10. 2020 04:00 186 45
21. 10. 2020 03:00 187 46
21. 10. 2020 02:00 187 46
21. 10. 2020 01:00 186 45
21. 10. 2020 00:00 186 45
20. 10. 2020 23:00 187 46
20. 10. 2020 22:00 187 46
20. 10. 2020 21:00 187 46
20. 10. 2020 20:00 187 46

H - water level, Q - discharge
Source data
Labe Basin Vltava Basin Povodí Moravy ČHMÚ